Portada
METAR-TAF:

METAR-TAF

Aeropuertos :

Aeropuerto de Gibraltar

Gibraltar, Gibraltar

latitud: 36-09N, longitud: 005-21W, altitud: 5 m

Observación

El informe se hizo hace 38 minutos, a las 23:50 UTC
Viento 14 kt del este
Temperatura 17°C
Humedad 94%
Presión 1015 hPa
Visibilidad: 9000 m

METAR: LXGB 162350Z AUTO 08014KT 9000 // BKN010/// BKN021/// 17/16 Q1015

Hora: 01:28 (00:28 UTC)

Pronóstico

El informe se hizo hace 7 horas y 33 minutos, a las 16:55 UTC
Pronóstico válido del 16 a las 18 UTC al 16 a las 23 UTC
Viento 12 kt del este
Visibilidad 10 km o más
Nubes dispersas a una altura de 1000 ft
Nubes dispersas a una altura de 2000 ft
Temporalmente
del 16 a las 18 UTC al 16 a las 23 UTC
Escasas nubes a una altura de 1100 ft
Nubes dispersas a una altura de 2500 ft
Probabilidad 30%
del 16 a las 18 UTC al 16 a las 23 UTC
Visibilidad: 7000 m
calima

TAF: LXGB 161655Z 1618/1623 08012KT 9999 SCT010 SCT020 TEMPO 1618/1623 FEW011 SCT025 PROB30 1618/1623 7000 HZ

Observaciones y pronósticos meteorológicos de más de 4000 aeropuertos (mensajes METAR y TAF).

Los puntos amarillos y rojos representan las estaciones disponibles.

Ponga el ratón en el punto deseado para ver el nombre de la estación.

Haga clic para ver las observaciones y los pronósticos meteorológicos.

Para cambiar el mapa : haga clic en los botones verdes con una cruz de color negro para hacer un zoom, en el botón verde con un guión para alejar o en las flechas verdes para mapas adyacentes.


METAR-TAF: